KCRW Airport Diagram

We have created a template for each of the higher traffic airports in the vZID airspace. They include KCMH, KCRW, KCVG, KDAY, KIND, KLEX and KSDF. You wil find usefull information including the airport diagram, weather, and specific airport procedures.

KCRW Weather

[Source: ADDS]
METAR
KCRW 261554Z 00000KT 10SM FEW040 28/17 A3016 RMK AO2 SLP206 T02780172 =
TAF
KCRW 261429Z 2614/2712 26005KT P6SM SKC FM270600 VRB03KT P6SM BKN120 =
JSN Epic template designed by JoomlaShine.com